31IS weather

Mason District Hospital Heliport
Havana, Illinois, United States

Public forecast

Using degrees Fahrenheit for public forecast. Weather courtesy of forecast.io.

METAR (pilot weather report)

Closest report is General Wayne A. Downing Peoria International Airport, 27.0 nm (50.0 km) NE. Retrieved 2019/06/19 09:54 UTC (44 minutes ago):

KPIA 190954Z 05003KT 9SM CLR 18/16 A2979 RMK AO2 SLP082 T01780156

TAF (pilot weather forecast)

Closest forecast is General Wayne A. Downing Peoria International Airport, 27.0 nm (50.0 km) NE. Retrieved 2019/06/19 06:24 UTC (4 hours ago):

TAF KPIA 190523Z 1906/2006 VRB03KT P6SM BKN080 FM191100 VRB03KT 6SM BR BKN060 FM191700 VRB04KT P6SM VCSH BKN035 FM191900 VRB03KT 6SM -SHRA BR VCTS OVC030CB FM200000 VRB04KT 4SM -RA BR OVC020